sensor_id;sensor_type;location;lat;lon;timestamp;temperature;humidity
78536;SHT31;67829;51.968;5.684;2024-02-16T00:00:21;14.2;66.4
78536;SHT31;67829;51.968;5.684;2024-02-16T00:02:49;14.2;66.5
78536;SHT31;67829;51.968;5.684;2024-02-16T00:05:18;14.2;66.5
78536;SHT31;67829;51.968;5.684;2024-02-16T00:07:50;14.2;66.6
78536;SHT31;67829;51.968;5.684;2024-02-16T00:10:19;14.2;66.6
78536;SHT31;67829;51.968;5.684;2024-02-16T00:12:48;14.2;66.6
78536;SHT31;67829;51.968;5.684;2024-02-16T00:15:16;14.1;66.5
78536;SHT31;67829;51.968;5.684;2024-02-16T00:17:45;14.1;66.5
78536;SHT31;67829;51.968;5.684;2024-02-16T00:20:15;14.1;66.5
78536;SHT31;67829;51.968;5.684;2024-02-16T00:22:47;14.1;66.4
78536;SHT31;67829;51.968;5.684;2024-02-16T00:25:16;14.1;66.4
78536;SHT31;67829;51.968;5.684;2024-02-16T00:27:44;14.0;66.4
78536;SHT31;67829;51.968;5.684;2024-02-16T00:30:13;14.0;66.5
78536;SHT31;67829;51.968;5.684;2024-02-16T00:32:44;14.0;66.5
78536;SHT31;67829;51.968;5.684;2024-02-16T00:35:16;14.0;66.4
78536;SHT31;67829;51.968;5.684;2024-02-16T00:37:46;14.0;66.5
78536;SHT31;67829;51.968;5.684;2024-02-16T00:40:16;13.9;66.6
78536;SHT31;67829;51.968;5.684;2024-02-16T00:42:45;13.9;66.6
78536;SHT31;67829;51.968;5.684;2024-02-16T00:45:13;13.9;66.7
78536;SHT31;67829;51.968;5.684;2024-02-16T00:47:44;13.9;66.8
78536;SHT31;67829;51.968;5.684;2024-02-16T00:50:15;13.9;66.8
78536;SHT31;67829;51.968;5.684;2024-02-16T00:52:44;13.9;66.9
78536;SHT31;67829;51.968;5.684;2024-02-16T00:55:12;13.8;66.9
78536;SHT31;67829;51.968;5.684;2024-02-16T00:57:41;13.8;66.9
78536;SHT31;67829;51.968;5.684;2024-02-16T01:00:10;13.8;67.1
78536;SHT31;67829;51.968;5.684;2024-02-16T01:02:41;13.8;67.1
78536;SHT31;67829;51.968;5.684;2024-02-16T01:05:10;13.8;67.0
78536;SHT31;67829;51.968;5.684;2024-02-16T01:07:39;13.8;67.0
78536;SHT31;67829;51.968;5.684;2024-02-16T01:10:09;13.8;67.0
78536;SHT31;67829;51.968;5.684;2024-02-16T01:12:38;13.8;66.9
78536;SHT31;67829;51.968;5.684;2024-02-16T01:15:08;13.8;66.9
78536;SHT31;67829;51.968;5.684;2024-02-16T01:17:39;13.7;66.9
78536;SHT31;67829;51.968;5.684;2024-02-16T01:20:08;13.7;66.9
78536;SHT31;67829;51.968;5.684;2024-02-16T01:22:39;13.7;66.9
78536;SHT31;67829;51.968;5.684;2024-02-16T01:25:09;13.7;66.8
78536;SHT31;67829;51.968;5.684;2024-02-16T01:27:38;13.7;66.9
78536;SHT31;67829;51.968;5.684;2024-02-16T01:30:08;13.7;66.9
78536;SHT31;67829;51.968;5.684;2024-02-16T01:32:37;13.7;66.9
78536;SHT31;67829;51.968;5.684;2024-02-16T01:35:07;13.6;66.9
78536;SHT31;67829;51.968;5.684;2024-02-16T01:37:36;13.6;67.0
78536;SHT31;67829;51.968;5.684;2024-02-16T01:40:08;13.6;67.0
78536;SHT31;67829;51.968;5.684;2024-02-16T01:42:40;13.6;66.8
78536;SHT31;67829;51.968;5.684;2024-02-16T01:45:11;13.6;66.9
78536;SHT31;67829;51.968;5.684;2024-02-16T01:47:41;13.6;66.9
78536;SHT31;67829;51.968;5.684;2024-02-16T01:50:15;13.5;67.0
78536;SHT31;67829;51.968;5.684;2024-02-16T01:52:45;13.5;67.1
78536;SHT31;67829;51.968;5.684;2024-02-16T01:55:16;13.5;67.1
78536;SHT31;67829;51.968;5.684;2024-02-16T01:57:47;13.5;67.2
78536;SHT31;67829;51.968;5.684;2024-02-16T02:00:16;13.5;67.2
78536;SHT31;67829;51.968;5.684;2024-02-16T02:02:46;13.5;67.2
78536;SHT31;67829;51.968;5.684;2024-02-16T02:05:15;13.5;67.2
78536;SHT31;67829;51.968;5.684;2024-02-16T02:07:44;13.5;67.2
78536;SHT31;67829;51.968;5.684;2024-02-16T02:10:13;13.4;67.2
78536;SHT31;67829;51.968;5.684;2024-02-16T02:12:42;13.4;67.2
78536;SHT31;67829;51.968;5.684;2024-02-16T02:15:11;13.4;67.3
78536;SHT31;67829;51.968;5.684;2024-02-16T02:17:40;13.5;67.2
78536;SHT31;67829;51.968;5.684;2024-02-16T02:20:12;13.5;67.2
78536;SHT31;67829;51.968;5.684;2024-02-16T02:22:41;13.5;67.2
78536;SHT31;67829;51.968;5.684;2024-02-16T02:25:10;13.5;67.2
78536;SHT31;67829;51.968;5.684;2024-02-16T02:27:39;13.5;67.1
78536;SHT31;67829;51.968;5.684;2024-02-16T02:30:09;13.4;67.2
78536;SHT31;67829;51.968;5.684;2024-02-16T02:32:37;13.4;67.2
78536;SHT31;67829;51.968;5.684;2024-02-16T02:35:09;13.4;67.2
78536;SHT31;67829;51.968;5.684;2024-02-16T02:37:40;13.5;67.3
78536;SHT31;67829;51.968;5.684;2024-02-16T02:40:10;13.5;67.2
78536;SHT31;67829;51.968;5.684;2024-02-16T02:42:39;13.5;67.1
78536;SHT31;67829;51.968;5.684;2024-02-16T02:45:08;13.5;67.1
78536;SHT31;67829;51.968;5.684;2024-02-16T02:47:37;13.5;67.0
78536;SHT31;67829;51.968;5.684;2024-02-16T02:50:07;13.5;66.9
78536;SHT31;67829;51.968;5.684;2024-02-16T02:52:36;13.5;66.8
78536;SHT31;67829;51.968;5.684;2024-02-16T02:55:06;13.5;66.8
78536;SHT31;67829;51.968;5.684;2024-02-16T02:57:35;13.5;66.9
78536;SHT31;67829;51.968;5.684;2024-02-16T03:00:08;13.5;66.9
78536;SHT31;67829;51.968;5.684;2024-02-16T03:02:38;13.5;67.0
78536;SHT31;67829;51.968;5.684;2024-02-16T03:05:07;13.6;67.0
78536;SHT31;67829;51.968;5.684;2024-02-16T03:07:39;13.6;66.9
78536;SHT31;67829;51.968;5.684;2024-02-16T03:10:10;13.6;66.8
78536;SHT31;67829;51.968;5.684;2024-02-16T03:12:40;13.6;66.7
78536;SHT31;67829;51.968;5.684;2024-02-16T03:15:09;13.6;66.5
78536;SHT31;67829;51.968;5.684;2024-02-16T03:17:38;13.6;66.6
78536;SHT31;67829;51.968;5.684;2024-02-16T03:20:10;13.6;66.6
78536;SHT31;67829;51.968;5.684;2024-02-16T03:22:39;13.6;66.6
78536;SHT31;67829;51.968;5.684;2024-02-16T03:25:08;13.6;66.5
78536;SHT31;67829;51.968;5.684;2024-02-16T03:27:36;13.6;66.3
78536;SHT31;67829;51.968;5.684;2024-02-16T03:30:06;13.7;66.3
78536;SHT31;67829;51.968;5.684;2024-02-16T03:32:35;13.7;66.2
78536;SHT31;67829;51.968;5.684;2024-02-16T03:35:04;13.6;66.0
78536;SHT31;67829;51.968;5.684;2024-02-16T03:37:33;13.6;66.0
78536;SHT31;67829;51.968;5.684;2024-02-16T03:40:05;13.6;66.0
78536;SHT31;67829;51.968;5.684;2024-02-16T03:42:36;13.6;66.1
78536;SHT31;67829;51.968;5.684;2024-02-16T03:45:05;13.6;66.1
78536;SHT31;67829;51.968;5.684;2024-02-16T03:47:35;13.5;66.1
78536;SHT31;67829;51.968;5.684;2024-02-16T03:50:04;13.5;66.2
78536;SHT31;67829;51.968;5.684;2024-02-16T03:52:33;13.5;66.3
78536;SHT31;67829;51.968;5.684;2024-02-16T03:55:02;13.5;66.4
78536;SHT31;67829;51.968;5.684;2024-02-16T03:57:32;13.4;66.3
78536;SHT31;67829;51.968;5.684;2024-02-16T04:00:03;13.4;66.4
78536;SHT31;67829;51.968;5.684;2024-02-16T04:02:32;13.4;66.5
78536;SHT31;67829;51.968;5.684;2024-02-16T04:05:02;13.4;66.6
78536;SHT31;67829;51.968;5.684;2024-02-16T04:07:34;13.4;66.6
78536;SHT31;67829;51.968;5.684;2024-02-16T04:10:02;13.4;66.7
78536;SHT31;67829;51.968;5.684;2024-02-16T04:12:33;13.4;66.7
78536;SHT31;67829;51.968;5.684;2024-02-16T04:15:03;13.3;66.7
78536;SHT31;67829;51.968;5.684;2024-02-16T04:17:33;13.3;66.7
78536;SHT31;67829;51.968;5.684;2024-02-16T04:20:01;13.3;66.7
78536;SHT31;67829;51.968;5.684;2024-02-16T04:22:29;13.3;66.9
78536;SHT31;67829;51.968;5.684;2024-02-16T04:25:04;13.3;67.0
78536;SHT31;67829;51.968;5.684;2024-02-16T04:27:32;13.3;66.9
78536;SHT31;67829;51.968;5.684;2024-02-16T04:30:01;13.3;67.0
78536;SHT31;67829;51.968;5.684;2024-02-16T04:32:30;13.3;66.9
78536;SHT31;67829;51.968;5.684;2024-02-16T04:34:59;13.3;66.9
78536;SHT31;67829;51.968;5.684;2024-02-16T04:37:28;13.3;67.0
78536;SHT31;67829;51.968;5.684;2024-02-16T04:39:56;13.3;67.0
78536;SHT31;67829;51.968;5.684;2024-02-16T04:42:26;13.3;67.1
78536;SHT31;67829;51.968;5.684;2024-02-16T04:44:56;13.3;67.1
78536;SHT31;67829;51.968;5.684;2024-02-16T04:47:25;13.3;67.2
78536;SHT31;67829;51.968;5.684;2024-02-16T04:49:54;13.3;67.1
78536;SHT31;67829;51.968;5.684;2024-02-16T04:52:22;13.3;67.2
78536;SHT31;67829;51.968;5.684;2024-02-16T04:54:51;13.3;67.2
78536;SHT31;67829;51.968;5.684;2024-02-16T04:57:19;13.4;67.2
78536;SHT31;67829;51.968;5.684;2024-02-16T04:59:47;13.4;67.1
78536;SHT31;67829;51.968;5.684;2024-02-16T05:02:16;13.4;67.0
78536;SHT31;67829;51.968;5.684;2024-02-16T05:04:46;13.4;67.0
78536;SHT31;67829;51.968;5.684;2024-02-16T05:07:15;13.4;67.0
78536;SHT31;67829;51.968;5.684;2024-02-16T05:09:45;13.4;66.7
78536;SHT31;67829;51.968;5.684;2024-02-16T05:12:14;13.4;66.8
78536;SHT31;67829;51.968;5.684;2024-02-16T05:14:47;13.4;66.6
78536;SHT31;67829;51.968;5.684;2024-02-16T05:17:15;13.4;66.2
78536;SHT31;67829;51.968;5.684;2024-02-16T05:19:44;13.4;66.2
78536;SHT31;67829;51.968;5.684;2024-02-16T05:22:12;13.4;66.5
78536;SHT31;67829;51.968;5.684;2024-02-16T05:24:43;13.4;66.4
78536;SHT31;67829;51.968;5.684;2024-02-16T05:27:12;13.4;66.5
78536;SHT31;67829;51.968;5.684;2024-02-16T05:29:40;13.4;66.9
78536;SHT31;67829;51.968;5.684;2024-02-16T05:32:10;13.4;67.1
78536;SHT31;67829;51.968;5.684;2024-02-16T05:34:41;13.5;67.0
78536;SHT31;67829;51.968;5.684;2024-02-16T05:37:10;13.5;67.1
78536;SHT31;67829;51.968;5.684;2024-02-16T05:39:38;13.5;67.1
78536;SHT31;67829;51.968;5.684;2024-02-16T05:42:12;13.5;66.9
78536;SHT31;67829;51.968;5.684;2024-02-16T05:44:40;13.5;67.2
78536;SHT31;67829;51.968;5.684;2024-02-16T05:47:09;13.5;66.9
78536;SHT31;67829;51.968;5.684;2024-02-16T05:49:38;13.5;66.9
78536;SHT31;67829;51.968;5.684;2024-02-16T05:52:09;13.5;67.0
78536;SHT31;67829;51.968;5.684;2024-02-16T05:54:47;13.5;66.9
78536;SHT31;67829;51.968;5.684;2024-02-16T05:57:16;13.5;66.8
78536;SHT31;67829;51.968;5.684;2024-02-16T05:59:45;13.5;67.0
78536;SHT31;67829;51.968;5.684;2024-02-16T06:02:14;13.5;66.7
78536;SHT31;67829;51.968;5.684;2024-02-16T06:04:43;13.5;66.8
78536;SHT31;67829;51.968;5.684;2024-02-16T06:07:14;13.5;66.8
78536;SHT31;67829;51.968;5.684;2024-02-16T06:09:42;13.5;67.0
78536;SHT31;67829;51.968;5.684;2024-02-16T06:12:11;13.5;66.9
78536;SHT31;67829;51.968;5.684;2024-02-16T06:14:39;13.6;66.8
78536;SHT31;67829;51.968;5.684;2024-02-16T06:17:08;13.6;67.3
78536;SHT31;67829;51.968;5.684;2024-02-16T06:19:39;13.6;67.4
78536;SHT31;67829;51.968;5.684;2024-02-16T06:22:08;13.6;67.6
78536;SHT31;67829;51.968;5.684;2024-02-16T06:24:37;13.6;67.4
78536;SHT31;67829;51.968;5.684;2024-02-16T06:27:07;13.6;67.5
78536;SHT31;67829;51.968;5.684;2024-02-16T06:29:36;13.6;67.7
78536;SHT31;67829;51.968;5.684;2024-02-16T06:32:05;13.6;67.8
78536;SHT31;67829;51.968;5.684;2024-02-16T06:34:33;13.6;67.8
78536;SHT31;67829;51.968;5.684;2024-02-16T06:37:02;13.7;67.8
78536;SHT31;67829;51.968;5.684;2024-02-16T06:39:31;13.7;67.8
78536;SHT31;67829;51.968;5.684;2024-02-16T06:41:59;13.7;67.8
78536;SHT31;67829;51.968;5.684;2024-02-16T06:44:29;13.7;67.7
78536;SHT31;67829;51.968;5.684;2024-02-16T06:46:59;13.8;67.6
78536;SHT31;67829;51.968;5.684;2024-02-16T06:49:28;13.8;67.5
78536;SHT31;67829;51.968;5.684;2024-02-16T06:51:56;13.8;67.5
78536;SHT31;67829;51.968;5.684;2024-02-16T06:54:25;13.8;67.4
78536;SHT31;67829;51.968;5.684;2024-02-16T06:56:53;13.8;67.2
78536;SHT31;67829;51.968;5.684;2024-02-16T06:59:22;13.8;67.3
78536;SHT31;67829;51.968;5.684;2024-02-16T07:01:50;13.8;67.3
78536;SHT31;67829;51.968;5.684;2024-02-16T07:04:19;13.8;67.3
78536;SHT31;67829;51.968;5.684;2024-02-16T07:06:48;13.8;67.3
78536;SHT31;67829;51.968;5.684;2024-02-16T07:09:17;13.8;67.3
78536;SHT31;67829;51.968;5.684;2024-02-16T07:11:45;13.8;67.5
78536;SHT31;67829;51.968;5.684;2024-02-16T07:14:17;13.8;67.7
78536;SHT31;67829;51.968;5.684;2024-02-16T07:16:45;13.8;68.0
78536;SHT31;67829;51.968;5.684;2024-02-16T07:19:13;13.8;68.2
78536;SHT31;67829;51.968;5.684;2024-02-16T07:21:42;13.7;68.3
78536;SHT31;67829;51.968;5.684;2024-02-16T07:24:10;13.7;68.5
78536;SHT31;67829;51.968;5.684;2024-02-16T07:26:39;13.8;68.7
78536;SHT31;67829;51.968;5.684;2024-02-16T07:29:08;13.8;68.8
78536;SHT31;67829;51.968;5.684;2024-02-16T07:31:39;13.8;68.8
78536;SHT31;67829;51.968;5.684;2024-02-16T07:34:09;13.8;69.0
78536;SHT31;67829;51.968;5.684;2024-02-16T07:36:39;13.8;69.0
78536;SHT31;67829;51.968;5.684;2024-02-16T07:39:08;13.8;69.0
78536;SHT31;67829;51.968;5.684;2024-02-16T07:41:38;13.9;69.1
78536;SHT31;67829;51.968;5.684;2024-02-16T07:44:07;13.9;69.0
78536;SHT31;67829;51.968;5.684;2024-02-16T07:46:41;13.9;68.9
78536;SHT31;67829;51.968;5.684;2024-02-16T07:49:12;13.9;69.0
78536;SHT31;67829;51.968;5.684;2024-02-16T07:51:43;13.9;69.1
78536;SHT31;67829;51.968;5.684;2024-02-16T07:54:11;14.0;69.0
78536;SHT31;67829;51.968;5.684;2024-02-16T07:56:42;14.0;69.0
78536;SHT31;67829;51.968;5.684;2024-02-16T07:59:11;14.0;69.1
78536;SHT31;67829;51.968;5.684;2024-02-16T08:01:41;14.0;69.2
78536;SHT31;67829;51.968;5.684;2024-02-16T08:04:11;14.0;69.3
78536;SHT31;67829;51.968;5.684;2024-02-16T08:06:39;14.0;69.3
78536;SHT31;67829;51.968;5.684;2024-02-16T08:09:08;14.1;69.3
78536;SHT31;67829;51.968;5.684;2024-02-16T08:11:37;14.1;69.5
78536;SHT31;67829;51.968;5.684;2024-02-16T08:14:05;14.1;69.7
78536;SHT31;67829;51.968;5.684;2024-02-16T08:16:34;14.1;69.7
78536;SHT31;67829;51.968;5.684;2024-02-16T08:19:03;14.1;69.8
78536;SHT31;67829;51.968;5.684;2024-02-16T08:21:32;14.1;69.8
78536;SHT31;67829;51.968;5.684;2024-02-16T08:24:00;14.2;70.0
78536;SHT31;67829;51.968;5.684;2024-02-16T08:26:29;14.2;69.5
78536;SHT31;67829;51.968;5.684;2024-02-16T08:28:58;14.2;69.1
78536;SHT31;67829;51.968;5.684;2024-02-16T08:31:27;14.2;69.2
78536;SHT31;67829;51.968;5.684;2024-02-16T08:33:55;14.2;69.2
78536;SHT31;67829;51.968;5.684;2024-02-16T08:36:25;14.3;69.1
78536;SHT31;67829;51.968;5.684;2024-02-16T08:38:56;14.3;69.3
78536;SHT31;67829;51.968;5.684;2024-02-16T08:41:25;14.3;69.4
78536;SHT31;67829;51.968;5.684;2024-02-16T08:43:53;14.3;69.4
78536;SHT31;67829;51.968;5.684;2024-02-16T08:46:23;14.3;69.3
78536;SHT31;67829;51.968;5.684;2024-02-16T08:48:53;14.4;69.6
78536;SHT31;67829;51.968;5.684;2024-02-16T08:51:21;14.4;69.5
78536;SHT31;67829;51.968;5.684;2024-02-16T08:53:50;14.4;69.3
78536;SHT31;67829;51.968;5.684;2024-02-16T08:56:18;14.4;69.4
78536;SHT31;67829;51.968;5.684;2024-02-16T08:58:47;14.5;69.2
78536;SHT31;67829;51.968;5.684;2024-02-16T09:01:16;14.5;69.3
78536;SHT31;67829;51.968;5.684;2024-02-16T09:03:45;14.5;69.1
78536;SHT31;67829;51.968;5.684;2024-02-16T09:06:13;14.5;69.6
78536;SHT31;67829;51.968;5.684;2024-02-16T09:08:42;14.5;69.7
78536;SHT31;67829;51.968;5.684;2024-02-16T09:11:11;14.5;69.9
78536;SHT31;67829;51.968;5.684;2024-02-16T09:13:41;14.6;69.9
78536;SHT31;67829;51.968;5.684;2024-02-16T09:16:10;14.6;70.1
78536;SHT31;67829;51.968;5.684;2024-02-16T09:18:39;14.6;70.0
78536;SHT31;67829;51.968;5.684;2024-02-16T09:21:08;14.7;70.0
78536;SHT31;67829;51.968;5.684;2024-02-16T09:23:37;14.7;70.0
78536;SHT31;67829;51.968;5.684;2024-02-16T09:26:06;14.7;70.1
78536;SHT31;67829;51.968;5.684;2024-02-16T09:28:39;14.8;69.7
78536;SHT31;67829;51.968;5.684;2024-02-16T09:31:08;14.8;69.9
78536;SHT31;67829;51.968;5.684;2024-02-16T09:33:39;14.9;69.9
78536;SHT31;67829;51.968;5.684;2024-02-16T09:36:08;14.9;69.9
78536;SHT31;67829;51.968;5.684;2024-02-16T09:38:36;14.9;70.0
78536;SHT31;67829;51.968;5.684;2024-02-16T09:41:06;14.9;69.9
78536;SHT31;67829;51.968;5.684;2024-02-16T09:43:35;15.0;70.1
78536;SHT31;67829;51.968;5.684;2024-02-16T09:46:06;15.0;70.2
78536;SHT31;67829;51.968;5.684;2024-02-16T09:48:39;15.0;69.8
78536;SHT31;67829;51.968;5.684;2024-02-16T09:51:12;15.0;70.1
78536;SHT31;67829;51.968;5.684;2024-02-16T09:53:40;15.1;70.4
78536;SHT31;67829;51.968;5.684;2024-02-16T09:56:08;15.1;70.3
78536;SHT31;67829;51.968;5.684;2024-02-16T09:58:37;15.1;70.0
78536;SHT31;67829;51.968;5.684;2024-02-16T10:01:06;15.1;69.8
78536;SHT31;67829;51.968;5.684;2024-02-16T10:03:34;15.2;69.4
78536;SHT31;67829;51.968;5.684;2024-02-16T10:06:07;15.2;69.6
78536;SHT31;67829;51.968;5.684;2024-02-16T10:08:48;15.2;69.8
78536;SHT31;67829;51.968;5.684;2024-02-16T10:11:19;15.2;69.5
78536;SHT31;67829;51.968;5.684;2024-02-16T10:13:59;15.2;69.8
78536;SHT31;67829;51.968;5.684;2024-02-16T10:16:29;15.3;69.7
78536;SHT31;67829;51.968;5.684;2024-02-16T10:19:06;15.3;69.4
78536;SHT31;67829;51.968;5.684;2024-02-16T10:21:37;15.3;69.5
78536;SHT31;67829;51.968;5.684;2024-02-16T10:24:07;15.3;69.6
78536;SHT31;67829;51.968;5.684;2024-02-16T10:26:38;15.3;69.8
78536;SHT31;67829;51.968;5.684;2024-02-16T10:29:09;15.3;69.6
78536;SHT31;67829;51.968;5.684;2024-02-16T10:31:40;15.3;69.8
78536;SHT31;67829;51.968;5.684;2024-02-16T10:34:08;15.3;69.9
78536;SHT31;67829;51.968;5.684;2024-02-16T10:36:39;15.3;69.9
78536;SHT31;67829;51.968;5.684;2024-02-16T10:39:08;15.3;70.1
78536;SHT31;67829;51.968;5.684;2024-02-16T10:41:39;15.3;70.1
78536;SHT31;67829;51.968;5.684;2024-02-16T10:44:09;15.3;70.2
78536;SHT31;67829;51.968;5.684;2024-02-16T10:46:38;15.3;70.2
78536;SHT31;67829;51.968;5.684;2024-02-16T10:49:08;15.3;70.3
78536;SHT31;67829;51.968;5.684;2024-02-16T10:51:39;15.3;70.3
78536;SHT31;67829;51.968;5.684;2024-02-16T10:54:13;15.3;70.2
78536;SHT31;67829;51.968;5.684;2024-02-16T10:56:42;15.3;70.4
78536;SHT31;67829;51.968;5.684;2024-02-16T10:59:11;15.3;70.6
78536;SHT31;67829;51.968;5.684;2024-02-16T11:01:41;15.3;70.8
78536;SHT31;67829;51.968;5.684;2024-02-16T11:04:14;15.3;71.0
78536;SHT31;67829;51.968;5.684;2024-02-16T11:06:48;15.3;71.0
78536;SHT31;67829;51.968;5.684;2024-02-16T11:09:30;15.3;71.3
78536;SHT31;67829;51.968;5.684;2024-02-16T11:12:03;15.3;71.3
78536;SHT31;67829;51.968;5.684;2024-02-16T11:14:37;15.2;71.7
78536;SHT31;67829;51.968;5.684;2024-02-16T11:17:09;15.2;72.1
78536;SHT31;67829;51.968;5.684;2024-02-16T11:19:42;15.2;72.3
78536;SHT31;67829;51.968;5.684;2024-02-16T11:22:14;15.2;72.6
78536;SHT31;67829;51.968;5.684;2024-02-16T11:24:46;15.2;72.8
78536;SHT31;67829;51.968;5.684;2024-02-16T11:27:16;15.2;72.9
78536;SHT31;67829;51.968;5.684;2024-02-16T11:29:49;15.1;72.9
78536;SHT31;67829;51.968;5.684;2024-02-16T11:32:18;15.1;73.0
78536;SHT31;67829;51.968;5.684;2024-02-16T11:34:47;15.1;73.3
78536;SHT31;67829;51.968;5.684;2024-02-16T11:37:16;15.0;73.7
78536;SHT31;67829;51.968;5.684;2024-02-16T11:39:45;15.0;73.9
78536;SHT31;67829;51.968;5.684;2024-02-16T11:42:20;15.0;74.0
78536;SHT31;67829;51.968;5.684;2024-02-16T11:44:53;14.9;74.3
78536;SHT31;67829;51.968;5.684;2024-02-16T11:47:24;14.9;74.4
78536;SHT31;67829;51.968;5.684;2024-02-16T11:50:02;14.9;74.5
78536;SHT31;67829;51.968;5.684;2024-02-16T11:52:31;14.9;74.6
78536;SHT31;67829;51.968;5.684;2024-02-16T11:55:00;14.9;74.5
78536;SHT31;67829;51.968;5.684;2024-02-16T11:57:30;14.8;74.0
78536;SHT31;67829;51.968;5.684;2024-02-16T12:00:00;14.8;74.1
78536;SHT31;67829;51.968;5.684;2024-02-16T12:02:35;14.8;74.1
78536;SHT31;67829;51.968;5.684;2024-02-16T12:05:05;14.8;74.2
78536;SHT31;67829;51.968;5.684;2024-02-16T12:07:36;14.8;74.1
78536;SHT31;67829;51.968;5.684;2024-02-16T12:10:07;14.7;74.3
78536;SHT31;67829;51.968;5.684;2024-02-16T12:12:37;14.7;74.4
78536;SHT31;67829;51.968;5.684;2024-02-16T12:15:07;14.7;74.4
78536;SHT31;67829;51.968;5.684;2024-02-16T12:17:36;14.7;74.5
78536;SHT31;67829;51.968;5.684;2024-02-16T12:20:13;14.7;74.8
78536;SHT31;67829;51.968;5.684;2024-02-16T12:22:41;14.7;74.6
78536;SHT31;67829;51.968;5.684;2024-02-16T12:25:10;14.7;74.8
78536;SHT31;67829;51.968;5.684;2024-02-16T12:27:38;14.7;74.8
78536;SHT31;67829;51.968;5.684;2024-02-16T12:30:08;14.7;74.8
78536;SHT31;67829;51.968;5.684;2024-02-16T12:32:37;14.6;74.8
78536;SHT31;67829;51.968;5.684;2024-02-16T12:35:07;14.6;74.9
78536;SHT31;67829;51.968;5.684;2024-02-16T12:37:36;14.6;74.9
78536;SHT31;67829;51.968;5.684;2024-02-16T12:40:05;14.6;75.0
78536;SHT31;67829;51.968;5.684;2024-02-16T12:42:34;14.6;74.9
78536;SHT31;67829;51.968;5.684;2024-02-16T12:45:03;14.6;75.0
78536;SHT31;67829;51.968;5.684;2024-02-16T12:47:32;14.6;75.2
78536;SHT31;67829;51.968;5.684;2024-02-16T12:50:00;14.6;75.3
78536;SHT31;67829;51.968;5.684;2024-02-16T12:52:29;14.6;75.2
78536;SHT31;67829;51.968;5.684;2024-02-16T12:55:00;14.6;75.2
78536;SHT31;67829;51.968;5.684;2024-02-16T12:57:29;14.6;75.2
78536;SHT31;67829;51.968;5.684;2024-02-16T12:59:58;14.6;75.1
78536;SHT31;67829;51.968;5.684;2024-02-16T13:02:26;14.6;75.2
78536;SHT31;67829;51.968;5.684;2024-02-16T13:04:55;14.5;75.2
78536;SHT31;67829;51.968;5.684;2024-02-16T13:07:25;14.5;75.3
78536;SHT31;67829;51.968;5.684;2024-02-16T13:09:53;14.5;75.4
78536;SHT31;67829;51.968;5.684;2024-02-16T13:12:22;14.5;75.7
78536;SHT31;67829;51.968;5.684;2024-02-16T13:14:50;14.5;75.9
78536;SHT31;67829;51.968;5.684;2024-02-16T13:17:20;14.5;76.1
78536;SHT31;67829;51.968;5.684;2024-02-16T13:19:48;14.5;76.3
78536;SHT31;67829;51.968;5.684;2024-02-16T13:22:16;14.5;76.4
78536;SHT31;67829;51.968;5.684;2024-02-16T13:24:45;14.5;76.5
78536;SHT31;67829;51.968;5.684;2024-02-16T13:27:13;14.6;76.3
78536;SHT31;67829;51.968;5.684;2024-02-16T13:29:42;14.6;76.0
78536;SHT31;67829;51.968;5.684;2024-02-16T13:32:10;14.6;75.8
78536;SHT31;67829;51.968;5.684;2024-02-16T13:34:39;14.6;76.0
78536;SHT31;67829;51.968;5.684;2024-02-16T13:37:09;14.6;76.0
78536;SHT31;67829;51.968;5.684;2024-02-16T13:39:38;14.7;75.7
78536;SHT31;67829;51.968;5.684;2024-02-16T13:42:07;14.7;75.4
78536;SHT31;67829;51.968;5.684;2024-02-16T13:44:39;14.7;74.9
78536;SHT31;67829;51.968;5.684;2024-02-16T13:47:08;14.7;74.9
78536;SHT31;67829;51.968;5.684;2024-02-16T13:49:38;14.7;74.8
78536;SHT31;67829;51.968;5.684;2024-02-16T13:52:09;14.7;74.9
78536;SHT31;67829;51.968;5.684;2024-02-16T13:54:37;14.8;74.8
78536;SHT31;67829;51.968;5.684;2024-02-16T13:57:06;14.8;74.6
78536;SHT31;67829;51.968;5.684;2024-02-16T13:59:35;14.8;74.2
78536;SHT31;67829;51.968;5.684;2024-02-16T14:02:04;14.8;74.2
78536;SHT31;67829;51.968;5.684;2024-02-16T14:04:34;14.8;74.0
78536;SHT31;67829;51.968;5.684;2024-02-16T14:07:03;14.8;73.8
78536;SHT31;67829;51.968;5.684;2024-02-16T14:09:32;14.8;73.7
78536;SHT31;67829;51.968;5.684;2024-02-16T14:12:02;14.9;73.7
78536;SHT31;67829;51.968;5.684;2024-02-16T14:14:31;14.9;74.1
78536;SHT31;67829;51.968;5.684;2024-02-16T14:17:01;14.9;74.0
78536;SHT31;67829;51.968;5.684;2024-02-16T14:19:30;14.9;73.7
78536;SHT31;67829;51.968;5.684;2024-02-16T14:22:00;14.9;72.8
78536;SHT31;67829;51.968;5.684;2024-02-16T14:24:29;14.9;72.9
78536;SHT31;67829;51.968;5.684;2024-02-16T14:27:00;14.9;72.4
78536;SHT31;67829;51.968;5.684;2024-02-16T14:29:29;15.0;72.4
78536;SHT31;67829;51.968;5.684;2024-02-16T14:31:58;15.0;72.8
78536;SHT31;67829;51.968;5.684;2024-02-16T14:34:26;15.0;72.6
78536;SHT31;67829;51.968;5.684;2024-02-16T14:36:55;15.0;72.0
78536;SHT31;67829;51.968;5.684;2024-02-16T14:39:23;15.0;72.1
78536;SHT31;67829;51.968;5.684;2024-02-16T14:41:52;15.0;71.8
78536;SHT31;67829;51.968;5.684;2024-02-16T14:44:20;15.0;71.7
78536;SHT31;67829;51.968;5.684;2024-02-16T14:46:49;15.0;71.4
78536;SHT31;67829;51.968;5.684;2024-02-16T14:49:17;15.0;71.8
78536;SHT31;67829;51.968;5.684;2024-02-16T14:51:49;15.0;72.2
78536;SHT31;67829;51.968;5.684;2024-02-16T14:54:19;15.0;72.2
78536;SHT31;67829;51.968;5.684;2024-02-16T14:56:47;15.0;72.0
78536;SHT31;67829;51.968;5.684;2024-02-16T14:59:16;15.1;71.9
78536;SHT31;67829;51.968;5.684;2024-02-16T15:01:44;15.1;71.9
78536;SHT31;67829;51.968;5.684;2024-02-16T15:04:13;15.1;71.7
78536;SHT31;67829;51.968;5.684;2024-02-16T15:06:42;15.0;71.7
78536;SHT31;67829;51.968;5.684;2024-02-16T15:09:11;15.0;71.6
78536;SHT31;67829;51.968;5.684;2024-02-16T15:11:39;15.0;71.8
78536;SHT31;67829;51.968;5.684;2024-02-16T15:14:08;15.0;71.7
78536;SHT31;67829;51.968;5.684;2024-02-16T15:16:40;15.0;71.7
78536;SHT31;67829;51.968;5.684;2024-02-16T15:19:10;15.0;71.2
78536;SHT31;67829;51.968;5.684;2024-02-16T15:21:38;15.1;71.2
78536;SHT31;67829;51.968;5.684;2024-02-16T15:24:09;15.1;69.8
78536;SHT31;67829;51.968;5.684;2024-02-16T15:26:38;15.1;69.4
78536;SHT31;67829;51.968;5.684;2024-02-16T15:29:06;15.1;69.5
78536;SHT31;67829;51.968;5.684;2024-02-16T15:31:35;15.1;69.1
78536;SHT31;67829;51.968;5.684;2024-02-16T15:34:05;15.0;69.5
78536;SHT31;67829;51.968;5.684;2024-02-16T15:36:34;15.0;69.7
78536;SHT31;67829;51.968;5.684;2024-02-16T15:39:03;15.0;69.5
78536;SHT31;67829;51.968;5.684;2024-02-16T15:41:35;15.0;69.4
78536;SHT31;67829;51.968;5.684;2024-02-16T15:44:05;15.0;69.2
78536;SHT31;67829;51.968;5.684;2024-02-16T15:46:36;15.0;69.5
78536;SHT31;67829;51.968;5.684;2024-02-16T15:49:06;15.0;69.7
78536;SHT31;67829;51.968;5.684;2024-02-16T15:51:36;15.1;69.5
78536;SHT31;67829;51.968;5.684;2024-02-16T15:54:05;15.1;68.8
78536;SHT31;67829;51.968;5.684;2024-02-16T15:56:33;15.0;69.3
78536;SHT31;67829;51.968;5.684;2024-02-16T15:59:02;15.0;69.2
78536;SHT31;67829;51.968;5.684;2024-02-16T16:01:30;15.0;69.2
78536;SHT31;67829;51.968;5.684;2024-02-16T16:04:01;15.0;69.4
78536;SHT31;67829;51.968;5.684;2024-02-16T16:06:30;15.0;69.5
78536;SHT31;67829;51.968;5.684;2024-02-16T16:08:58;15.0;69.3
78536;SHT31;67829;51.968;5.684;2024-02-16T16:11:29;15.0;69.3
78536;SHT31;67829;51.968;5.684;2024-02-16T16:13:58;15.0;69.3
78536;SHT31;67829;51.968;5.684;2024-02-16T16:16:27;15.0;69.8